Time;durP1;ratioP1;P1;durP2;ratioP2;P2;SDS_P1;SDS_P2;PMS_P1;PMS_P2;Temp;Humidity;BMP_temperature;BMP_pressure;BME280_temperature;BME280_humidity;BME280_pressure;Samples;Min_cycle;Max_cycle;Signal;HPM_P1;HPM_P2
2022/02/28 00:00:21;;;;;;;13.35;6.88;;;0.60;96.90;;;;;;5012216;28;20042;-72
2022/02/28 00:02:48;;;;;;;15.75;7.38;;;0.50;97.00;;;;;;5012705;28;20400;-75
2022/02/28 00:05:14;;;;;;;12.43;6.57;;;0.50;97.00;;;;;;5025947;28;20461;-74
2022/02/28 00:07:40;;;;;;;10.02;6.47;;;0.50;97.00;;;;;;5011294;28;20060;-74
2022/02/28 00:10:07;;;;;;;9.45;6.10;;;0.50;97.20;;;;;;5028975;28;20035;-75
2022/02/28 00:12:33;;;;;;;12.63;6.57;;;0.50;97.20;;;;;;5009874;28;20037;-74
2022/02/28 00:14:59;;;;;;;10.43;5.97;;;0.40;97.20;;;;;;5035354;28;20033;-74
2022/02/28 00:17:25;;;;;;;11.90;6.03;;;0.40;97.20;;;;;;5040399;28;20034;-74
2022/02/28 00:19:50;;;;;;;13.25;5.97;;;0.40;97.30;;;;;;5010625;28;20037;-74
2022/02/28 00:22:16;;;;;;;9.35;5.53;;;0.40;97.30;;;;;;5028546;28;20022;-72
2022/02/28 00:24:42;;;;;;;10.50;6.53;;;0.40;97.40;;;;;;5027672;28;20064;-75
2022/02/28 00:27:07;;;;;;;10.90;6.38;;;0.40;97.40;;;;;;5010011;28;20021;-75
2022/02/28 00:29:33;;;;;;;10.18;5.53;;;0.40;97.50;;;;;;5011302;28;20033;-74
2022/02/28 00:31:58;;;;;;;12.00;6.80;;;0.40;97.50;;;;;;5002774;28;20037;-73
2022/02/28 00:34:24;;;;;;;12.50;6.90;;;0.40;97.50;;;;;;5011778;28;20041;-75
2022/02/28 00:36:50;;;;;;;9.75;5.80;;;0.40;97.60;;;;;;5005370;28;20032;-74
2022/02/28 00:39:16;;;;;;;10.13;6.18;;;0.40;97.60;;;;;;5028455;28;20346;-74
2022/02/28 00:41:42;;;;;;;10.68;6.95;;;0.30;97.60;;;;;;5028951;28;20128;-74
2022/02/28 00:44:07;;;;;;;11.27;6.80;;;0.30;97.70;;;;;;5011875;28;20021;-74
2022/02/28 00:46:33;;;;;;;13.48;6.43;;;0.30;97.70;;;;;;5012159;28;20179;-74
2022/02/28 00:48:59;;;;;;;11.82;6.50;;;0.30;97.80;;;;;;5010558;28;20544;-72
2022/02/28 00:51:24;;;;;;;13.05;6.63;;;0.30;97.80;;;;;;5012278;28;20072;-74
2022/02/28 00:53:50;;;;;;;11.20;6.70;;;0.30;97.90;;;;;;5010984;28;20224;-75
2022/02/28 00:56:15;;;;;;;10.20;6.28;;;0.20;98.10;;;;;;5011266;28;20040;-74
2022/02/28 00:58:41;;;;;;;10.60;6.43;;;0.20;97.90;;;;;;5010756;28;20098;-73
2022/02/28 01:01:06;;;;;;;11.35;6.38;;;0.10;97.90;;;;;;5025268;28;20026;-75
2022/02/28 01:03:32;;;;;;;11.10;6.60;;;0.10;98.10;;;;;;5029755;28;20449;-75
2022/02/28 01:05:58;;;;;;;11.40;6.50;;;0.10;98.20;;;;;;5011716;28;20385;-74
2022/02/28 01:08:24;;;;;;;11.32;6.63;;;0.10;98.30;;;;;;5011005;28;20017;-75
2022/02/28 01:10:50;;;;;;;11.43;7.07;;;0.10;98.40;;;;;;5028915;28;20029;-74
2022/02/28 01:13:15;;;;;;;10.55;6.50;;;0.10;98.40;;;;;;5011558;28;20033;-72
2022/02/28 01:15:41;;;;;;;13.35;6.90;;;0.00;98.40;;;;;;5010679;28;20113;-75
2022/02/28 01:18:08;;;;;;;14.82;7.10;;;0.00;98.40;;;;;;5010246;28;20704;-74
2022/02/28 01:20:34;;;;;;;15.82;6.65;;;0.00;98.40;;;;;;5011675;28;20332;-73
2022/02/28 01:23:00;;;;;;;11.90;6.82;;;0.00;98.50;;;;;;5011588;28;20022;-73
2022/02/28 01:25:26;;;;;;;11.80;6.80;;;-0.10;98.50;;;;;;5029189;28;20033;-72
2022/02/28 01:27:51;;;;;;;10.45;6.53;;;-0.10;98.60;;;;;;5010319;28;20030;-74
2022/02/28 01:30:17;;;;;;;10.45;6.20;;;-0.10;98.70;;;;;;5010967;28;20025;-74
2022/02/28 01:32:43;;;;;;;10.82;6.15;;;-0.10;98.80;;;;;;5008040;28;20033;-74
2022/02/28 01:35:11;;;;;;;9.45;6.38;;;-0.10;98.90;;;;;;5021313;28;20244;-74
2022/02/28 01:37:38;;;;;;;11.38;6.50;;;-0.10;98.90;;;;;;5014237;28;20029;-74
2022/02/28 01:40:05;;;;;;;14.13;7.55;;;-0.20;98.90;;;;;;5015145;28;20037;-74
2022/02/28 01:42:31;;;;;;;11.25;6.82;;;-0.20;98.90;;;;;;5032503;28;20033;-74
2022/02/28 01:44:56;;;;;;;11.95;6.57;;;-0.20;99.00;;;;;;5031845;28;20045;-72
2022/02/28 01:47:22;;;;;;;12.07;6.50;;;-0.30;99.00;;;;;;5028148;28;20100;-74
2022/02/28 01:49:48;;;;;;;10.43;5.95;;;-0.30;99.30;;;;;;5029694;28;20029;-74
2022/02/28 01:52:16;;;;;;;11.10;7.28;;;-0.30;99.10;;;;;;5022211;28;20025;-74
2022/02/28 01:54:45;;;;;;;10.15;6.57;;;-0.40;99.10;;;;;;5031733;28;20112;-74
2022/02/28 01:57:10;;;;;;;11.30;6.68;;;-0.40;99.30;;;;;;5031436;28;20687;-74
2022/02/28 01:59:36;;;;;;;11.32;6.90;;;-0.40;99.40;;;;;;5030918;28;20049;-74
2022/02/28 02:02:02;;;;;;;11.00;6.68;;;-0.40;99.60;;;;;;5013873;28;20065;-74
2022/02/28 02:04:28;;;;;;;9.90;6.50;;;-0.40;99.70;;;;;;5025313;28;20028;-74
2022/02/28 02:06:54;;;;;;;15.27;7.65;;;-0.30;99.90;;;;;;5015178;28;20041;-74
2022/02/28 02:09:19;;;;;;;12.52;7.35;;;-0.30;99.90;;;;;;5029248;28;20088;-73
2022/02/28 02:11:45;;;;;;;11.52;6.90;;;-0.30;99.90;;;;;;5032089;28;20030;-73
2022/02/28 02:14:12;;;;;;;9.98;6.68;;;-0.20;99.90;;;;;;5028825;28;20116;-74
2022/02/28 02:16:39;;;;;;;11.82;7.00;;;-0.20;99.90;;;;;;5022681;28;20109;-72
2022/02/28 02:19:05;;;;;;;12.25;7.35;;;-0.20;99.90;;;;;;5012261;28;20151;-74
2022/02/28 02:21:31;;;;;;;10.20;6.68;;;-0.20;99.90;;;;;;5011186;28;20033;-74
2022/02/28 02:23:56;;;;;;;14.23;7.03;;;-0.20;99.90;;;;;;5009923;28;20029;-74
2022/02/28 02:26:22;;;;;;;12.43;7.10;;;-0.10;99.90;;;;;;5014324;28;20539;-74
2022/02/28 02:28:48;;;;;;;12.00;7.15;;;-0.10;99.90;;;;;;5029887;28;20022;-74
2022/02/28 02:31:13;;;;;;;11.77;7.18;;;-0.10;99.90;;;;;;5029449;28;20048;-74
2022/02/28 02:33:39;;;;;;;9.38;6.28;;;-0.10;99.90;;;;;;5011472;28;20060;-74
2022/02/28 02:36:06;;;;;;;12.05;6.97;;;-0.10;99.90;;;;;;5007668;28;20389;-74
2022/02/28 02:38:34;;;;;;;10.55;7.05;;;-0.10;99.90;;;;;;5029281;28;20033;-73
2022/02/28 02:41:02;;;;;;;10.82;6.82;;;-0.10;99.90;;;;;;5020751;28;20040;-74
2022/02/28 02:43:28;;;;;;;11.02;6.75;;;-0.10;99.90;;;;;;5028854;28;20044;-73
2022/02/28 02:45:54;;;;;;;14.63;6.85;;;-0.20;99.90;;;;;;5020420;28;20397;-73
2022/02/28 02:48:24;;;;;;;11.55;6.65;;;-0.20;99.90;;;;;;5029132;28;20049;-74
2022/02/28 02:50:50;;;;;;;11.05;7.05;;;-0.20;99.90;;;;;;5013622;28;20021;-75
2022/02/28 02:53:17;;;;;;;11.60;6.53;;;-0.20;99.90;;;;;;5030255;28;20113;-72
2022/02/28 02:55:43;;;;;;;13.10;7.13;;;-0.20;99.90;;;;;;5021045;28;20104;-73
2022/02/28 02:58:13;;;;;;;15.20;7.82;;;-0.20;99.90;;;;;;5009164;28;20486;-74
2022/02/28 03:00:39;;;;;;;20.00;9.38;;;-0.30;99.90;;;;;;5013188;28;20555;-73
2022/02/28 03:03:05;;;;;;;11.60;7.57;;;-0.30;99.90;;;;;;5030612;28;20021;-73
2022/02/28 03:05:30;;;;;;;17.05;7.88;;;-0.30;99.90;;;;;;5029165;28;20438;-74
2022/02/28 03:07:56;;;;;;;13.88;7.43;;;-0.30;99.90;;;;;;5018826;28;20105;-74
2022/02/28 03:10:22;;;;;;;10.98;6.90;;;-0.40;99.90;;;;;;5031739;28;20029;-74
2022/02/28 03:12:47;;;;;;;14.13;7.30;;;-0.40;99.90;;;;;;5030420;28;20033;-74
2022/02/28 03:15:13;;;;;;;13.23;7.25;;;-0.40;99.90;;;;;;5017964;28;20474;-74
2022/02/28 03:17:39;;;;;;;12.35;7.10;;;-0.40;99.90;;;;;;5030353;28;20460;-74
2022/02/28 03:20:05;;;;;;;11.45;7.22;;;-0.40;99.90;;;;;;5019803;28;20039;-74
2022/02/28 03:22:30;;;;;;;13.95;7.35;;;-0.50;99.90;;;;;;5012657;28;20334;-74
2022/02/28 03:24:56;;;;;;;14.45;7.70;;;-0.40;99.90;;;;;;5011900;28;20036;-74
2022/02/28 03:27:22;;;;;;;15.90;7.88;;;-0.50;99.90;;;;;;5012308;28;20478;-73
2022/02/28 03:29:47;;;;;;;14.93;7.68;;;-0.50;99.90;;;;;;5011707;28;20124;-74
2022/02/28 03:32:13;;;;;;;14.30;7.30;;;-0.40;99.90;;;;;;5013747;28;20417;-74
2022/02/28 03:34:38;;;;;;;11.68;7.40;;;-0.50;99.90;;;;;;5036145;28;20033;-72
2022/02/28 03:37:04;;;;;;;12.85;7.03;;;-0.50;99.90;;;;;;5047265;28;20026;-72
2022/02/28 03:39:30;;;;;;;14.05;6.50;;;-0.50;99.90;;;;;;5021554;28;20401;-73
2022/02/28 03:41:55;;;;;;;11.63;6.90;;;-0.50;99.90;;;;;;5013077;28;20028;-74
2022/02/28 03:44:22;;;;;;;10.55;6.82;;;-0.50;99.90;;;;;;5028337;28;20022;-74
2022/02/28 03:46:48;;;;;;;11.90;6.95;;;-0.50;99.90;;;;;;5027425;28;20037;-74
2022/02/28 03:49:15;;;;;;;13.15;6.93;;;-0.60;99.90;;;;;;5028096;28;20033;-74
2022/02/28 03:51:40;;;;;;;10.25;6.82;;;-0.60;99.90;;;;;;5010689;28;20036;-74
2022/02/28 03:54:10;;;;;;;12.68;7.10;;;-0.60;99.90;;;;;;5029296;28;20029;-74
2022/02/28 03:56:37;;;;;;;10.23;6.53;;;-0.60;99.90;;;;;;5009443;28;20075;-73
2022/02/28 03:59:02;;;;;;;13.60;6.38;;;-0.60;99.90;;;;;;5028444;28;20033;-74
2022/02/28 04:01:28;;;;;;;11.98;6.57;;;-0.70;99.90;;;;;;5013140;28;20373;-72
2022/02/28 04:03:53;;;;;;;10.43;6.75;;;-0.60;99.90;;;;;;5010715;28;20038;-74
2022/02/28 04:06:19;;;;;;;11.20;6.55;;;-0.60;99.90;;;;;;5026110;28;20060;-74
2022/02/28 04:08:45;;;;;;;13.45;6.63;;;-0.60;99.90;;;;;;5009922;28;20481;-74
2022/02/28 04:11:10;;;;;;;13.88;7.40;;;-0.70;99.90;;;;;;5030376;28;20032;-73
2022/02/28 04:13:36;;;;;;;11.40;7.25;;;-0.70;99.90;;;;;;5011452;28;20416;-73
2022/02/28 04:16:02;;;;;;;15.68;7.10;;;-0.70;99.90;;;;;;5011925;28;20035;-74
2022/02/28 04:18:29;;;;;;;13.82;7.10;;;-0.70;99.90;;;;;;5012627;28;20038;-73
2022/02/28 04:20:55;;;;;;;12.48;7.35;;;-0.80;99.90;;;;;;5018325;28;20033;-72
2022/02/28 04:23:21;;;;;;;10.60;7.18;;;-0.80;99.90;;;;;;5006903;28;20017;-73
2022/02/28 04:25:46;;;;;;;11.77;6.57;;;-0.80;99.90;;;;;;5023667;28;20026;-74
2022/02/28 04:28:12;;;;;;;11.35;6.95;;;-0.80;99.90;;;;;;5012078;28;20228;-74
2022/02/28 04:30:38;;;;;;;13.13;7.60;;;-0.90;99.90;;;;;;5012603;28;20053;-74
2022/02/28 04:33:03;;;;;;;13.88;7.40;;;-0.90;99.90;;;;;;5024647;28;20545;-74
2022/02/28 04:35:29;;;;;;;13.20;7.03;;;-0.90;99.90;;;;;;5007075;28;20129;-72
2022/02/28 04:37:55;;;;;;;14.63;7.43;;;-1.00;99.90;;;;;;5034018;28;20041;-74
2022/02/28 04:40:20;;;;;;;12.50;7.32;;;-1.00;99.90;;;;;;5010363;28;20021;-74
2022/02/28 04:42:46;;;;;;;13.90;7.10;;;-1.00;99.90;;;;;;5028385;28;20437;-74
2022/02/28 04:45:11;;;;;;;13.40;7.53;;;-1.00;99.90;;;;;;5028543;28;20439;-74
2022/02/28 04:47:37;;;;;;;11.85;7.00;;;-1.00;99.90;;;;;;5004187;28;20406;-74
2022/02/28 04:50:03;;;;;;;13.75;7.50;;;-1.00;99.90;;;;;;5028915;28;20033;-74
2022/02/28 04:52:29;;;;;;;12.93;7.45;;;-1.00;99.90;;;;;;5013128;28;20033;-74
2022/02/28 04:54:54;;;;;;;15.43;7.38;;;-1.10;99.90;;;;;;5011973;28;20028;-73
2022/02/28 04:57:20;;;;;;;11.40;6.78;;;-1.10;99.90;;;;;;5028491;28;20370;-73
2022/02/28 04:59:48;;;;;;;13.38;6.72;;;-1.10;99.90;;;;;;5014016;28;20124;-73
2022/02/28 05:02:14;;;;;;;15.63;7.55;;;-1.10;99.90;;;;;;5018332;28;20048;-74
2022/02/28 05:04:40;;;;;;;15.13;7.85;;;-1.20;99.90;;;;;;5029460;28;20470;-72
2022/02/28 05:07:05;;;;;;;12.82;7.25;;;-1.20;99.90;;;;;;5028144;28;20021;-74
2022/02/28 05:09:31;;;;;;;12.40;7.30;;;-1.30;99.90;;;;;;5011768;28;20022;-74
2022/02/28 05:11:56;;;;;;;10.80;7.45;;;-1.30;99.90;;;;;;5011551;28;20521;-74
2022/02/28 05:14:22;;;;;;;13.43;7.50;;;-1.30;99.90;;;;;;5027880;28;20144;-72
2022/02/28 05:16:48;;;;;;;14.15;7.38;;;-1.30;99.90;;;;;;5029130;28;20129;-74
2022/02/28 05:19:13;;;;;;;13.43;7.43;;;-1.30;99.90;;;;;;5028411;28;20022;-74
2022/02/28 05:21:39;;;;;;;14.35;7.88;;;-1.30;99.90;;;;;;5029271;28;20022;-74
2022/02/28 05:24:05;;;;;;;15.38;7.45;;;-1.40;99.90;;;;;;5029556;28;20055;-72
2022/02/28 05:26:30;;;;;;;13.52;8.15;;;-1.40;99.90;;;;;;5028680;28;20389;-72
2022/02/28 05:28:56;;;;;;;13.15;7.40;;;-1.40;99.90;;;;;;5010239;28;20035;-74
2022/02/28 05:31:21;;;;;;;14.48;7.45;;;-1.40;99.90;;;;;;5011389;28;20095;-73
2022/02/28 05:33:47;;;;;;;15.40;7.57;;;-1.40;99.90;;;;;;5024542;23;20013;-69
2022/02/28 05:36:12;;;;;;;13.73;7.15;;;-1.40;99.90;;;;;;5021230;28;20046;-69
2022/02/28 05:38:38;;;;;;;11.48;6.95;;;-1.40;99.90;;;;;;5018621;28;20112;-69
2022/02/28 05:41:04;;;;;;;11.55;7.72;;;-1.30;99.90;;;;;;5028499;28;20106;-69
2022/02/28 05:43:29;;;;;;;14.55;7.45;;;-1.30;99.90;;;;;;5028395;28;20048;-69
2022/02/28 05:45:55;;;;;;;13.77;7.47;;;-1.30;99.90;;;;;;5009644;28;20477;-69
2022/02/28 05:48:20;;;;;;;11.98;7.35;;;-1.30;99.90;;;;;;5025256;28;20034;-69
2022/02/28 05:50:46;;;;;;;11.27;7.35;;;-1.40;99.90;;;;;;5027358;28;20056;-69
2022/02/28 05:53:11;;;;;;;11.40;6.80;;;-1.30;99.90;;;;;;5027956;28;20068;-69
2022/02/28 05:55:38;;;;;;;12.75;7.60;;;-1.30;99.90;;;;;;5027812;28;20139;-69
2022/02/28 05:58:04;;;;;;;13.07;7.35;;;-1.30;99.90;;;;;;5026584;28;20033;-69
2022/02/28 06:00:30;;;;;;;14.38;8.02;;;-1.30;99.90;;;;;;5028610;28;20029;-69
2022/02/28 06:02:55;;;;;;;14.80;7.70;;;-1.20;99.90;;;;;;5025686;28;20390;-69
2022/02/28 06:05:21;;;;;;;11.65;7.32;;;-1.20;99.90;;;;;;5027141;28;20099;-69
2022/02/28 06:07:47;;;;;;;16.83;7.32;;;-1.20;99.90;;;;;;5025683;28;20112;-69
2022/02/28 06:10:13;;;;;;;15.20;7.70;;;-1.20;99.90;;;;;;5026380;28;20026;-69
2022/02/28 06:12:39;;;;;;;10.80;7.25;;;-1.20;99.90;;;;;;5024429;28;20037;-68
2022/02/28 06:15:05;;;;;;;12.75;7.32;;;-1.20;99.90;;;;;;5024281;28;20053;-68
2022/02/28 06:17:32;;;;;;;14.68;7.53;;;-1.20;99.90;;;;;;5019124;28;20112;-68
2022/02/28 06:19:58;;;;;;;13.40;7.60;;;-1.10;99.90;;;;;;5021704;28;20057;-68
2022/02/28 06:22:23;;;;;;;11.88;6.97;;;-1.10;99.90;;;;;;5027798;28;20049;-68
2022/02/28 06:24:49;;;;;;;11.70;7.30;;;-1.20;99.90;;;;;;5022846;28;20026;-68
2022/02/28 06:27:15;;;;;;;14.18;7.63;;;-1.20;99.90;;;;;;5015731;28;20051;-68
2022/02/28 06:29:42;;;;;;;13.35;7.50;;;-1.20;99.90;;;;;;5032025;28;20355;-68
2022/02/28 06:32:08;;;;;;;14.98;7.55;;;-1.20;99.90;;;;;;5015319;28;20033;-68
2022/02/28 06:34:34;;;;;;;14.90;7.53;;;-1.20;99.90;;;;;;5027228;28;20033;-68
2022/02/28 06:36:59;;;;;;;13.00;7.18;;;-1.20;99.90;;;;;;5032385;28;20064;-68
2022/02/28 06:39:28;;;;;;;12.88;7.50;;;-1.20;99.90;;;;;;5031251;28;20052;-68
2022/02/28 06:41:54;;;;;;;13.77;7.22;;;-0.90;99.90;;;;;;5012908;28;20032;-68
2022/02/28 06:44:20;;;;;;;15.00;7.00;;;-0.50;99.90;;;;;;5023613;28;20021;-68
2022/02/28 06:46:46;;;;;;;14.02;7.25;;;-0.10;99.90;;;;;;5031288;28;20026;-68
2022/02/28 06:49:11;;;;;;;11.95;6.20;;;0.20;99.90;;;;;;5025372;28;20029;-68
2022/02/28 06:51:37;;;;;;;12.30;6.82;;;0.60;99.90;;;;;;5028579;28;20697;-68
2022/02/28 06:54:02;;;;;;;12.82;6.85;;;1.00;99.90;;;;;;5033514;28;20104;-68
2022/02/28 06:56:28;;;;;;;9.60;6.55;;;1.30;99.80;;;;;;5033077;28;20034;-68
2022/02/28 06:58:54;;;;;;;11.20;6.63;;;1.60;99.50;;;;;;5023670;28;20038;-67
2022/02/28 07:01:19;;;;;;;11.75;6.18;;;1.70;99.30;;;;;;5026691;28;20109;-67
2022/02/28 07:03:45;;;;;;;9.32;5.75;;;1.70;99.50;;;;;;5032563;28;20033;-67
2022/02/28 07:06:13;;;;;;;14.77;7.00;;;2.00;99.30;;;;;;5032260;28;20033;-68
2022/02/28 07:08:39;;;;;;;9.90;6.95;;;2.40;98.90;;;;;;5031467;28;20045;-67
2022/02/28 07:11:05;;;;;;;11.32;6.78;;;2.70;98.50;;;;;;5032634;28;20151;-65
2022/02/28 07:13:32;;;;;;;12.98;6.95;;;2.80;98.30;;;;;;5032414;28;20363;-65
2022/02/28 07:15:57;;;;;;;10.38;6.25;;;2.70;98.50;;;;;;5032928;28;20022;-68
2022/02/28 07:18:23;;;;;;;11.35;6.78;;;2.60;98.80;;;;;;5031340;28;20750;-68
2022/02/28 07:20:48;;;;;;;11.43;7.22;;;2.90;98.80;;;;;;5031816;28;20062;-67
2022/02/28 07:23:14;;;;;;;11.38;7.18;;;3.40;98.10;;;;;;5032567;28;20029;-67
2022/02/28 07:25:40;;;;;;;12.23;6.93;;;3.80;97.60;;;;;;5027828;28;20034;-67
2022/02/28 07:28:06;;;;;;;9.02;6.32;;;4.10;97.20;;;;;;5019791;28;20026;-67
2022/02/28 07:30:32;;;;;;;10.65;6.60;;;4.10;97.30;;;;;;5023107;28;20115;-67
2022/02/28 07:32:57;;;;;;;8.90;5.88;;;4.20;97.70;;;;;;5032099;28;20075;-66
2022/02/28 07:35:23;;;;;;;10.15;7.50;;;4.70;97.10;;;;;;5029767;28;20386;-67
2022/02/28 07:37:49;;;;;;;11.15;6.85;;;5.10;96.10;;;;;;5024105;28;20029;-67
2022/02/28 07:40:14;;;;;;;11.57;6.50;;;5.40;95.40;;;;;;5031924;28;20053;-66
2022/02/28 07:42:40;;;;;;;10.05;6.95;;;5.80;94.90;;;;;;5029734;28;20041;-67
2022/02/28 07:45:08;;;;;;;10.38;7.10;;;6.00;94.60;;;;;;5025878;28;20035;-67
2022/02/28 07:47:34;;;;;;;8.55;6.30;;;6.10;94.70;;;;;;5027607;28;20485;-67
2022/02/28 07:50:00;;;;;;;11.07;6.78;;;6.40;94.60;;;;;;5031855;28;20037;-67
2022/02/28 07:52:26;;;;;;;9.73;6.88;;;6.80;94.10;;;;;;5031833;28;20117;-67
2022/02/28 07:54:51;;;;;;;12.15;7.07;;;7.20;93.40;;;;;;5032167;28;20108;-68
2022/02/28 07:57:17;;;;;;;11.07;7.10;;;7.50;92.90;;;;;;5030878;28;20038;-68
2022/02/28 07:59:43;;;;;;;11.85;6.93;;;7.80;92.60;;;;;;5031667;28;20030;-69
2022/02/28 08:02:08;;;;;;;10.27;6.78;;;7.90;92.30;;;;;;5025809;28;20026;-67
2022/02/28 08:04:34;;;;;;;11.32;6.97;;;8.00;92.60;;;;;;5032580;28;20091;-67
2022/02/28 08:07:00;;;;;;;12.27;7.30;;;8.10;92.00;;;;;;5030546;28;20041;-68
2022/02/28 08:09:26;;;;;;;11.32;7.45;;;8.20;91.60;;;;;;5013457;28;20503;-68
2022/02/28 08:11:53;;;;;;;10.73;7.28;;;8.30;91.30;;;;;;5031379;28;20049;-68
2022/02/28 08:14:19;;;;;;;10.27;6.80;;;8.30;91.20;;;;;;5031290;28;20125;-68
2022/02/28 08:16:45;;;;;;;13.15;8.05;;;8.30;91.50;;;;;;5027088;28;20469;-68
2022/02/28 08:19:11;;;;;;;11.77;7.88;;;8.20;91.50;;;;;;5027234;28;20022;-68
2022/02/28 08:21:36;;;;;;;9.35;6.97;;;8.10;91.80;;;;;;5018617;28;20482;-68
2022/02/28 08:24:02;;;;;;;11.85;7.70;;;7.90;92.20;;;;;;5028468;28;20029;-67
2022/02/28 08:26:28;;;;;;;9.38;7.32;;;7.80;92.60;;;;;;5029962;28;20036;-67
2022/02/28 08:28:53;;;;;;;8.95;7.43;;;7.80;92.80;;;;;;5030212;28;20033;-67
2022/02/28 08:31:19;;;;;;;10.98;7.68;;;7.80;92.70;;;;;;5030316;28;20049;-67
2022/02/28 08:33:44;;;;;;;11.45;6.82;;;7.80;92.80;;;;;;5030748;28;20100;-68
2022/02/28 08:36:10;;;;;;;12.13;6.95;;;7.80;92.80;;;;;;5033531;28;20038;-67
2022/02/28 08:38:36;;;;;;;9.23;6.95;;;7.80;92.40;;;;;;5028582;28;20029;-67
2022/02/28 08:41:01;;;;;;;12.80;6.85;;;7.80;92.40;;;;;;5029796;28;20076;-67
2022/02/28 08:43:27;;;;;;;11.35;7.35;;;7.80;92.20;;;;;;5030001;28;20037;-67
2022/02/28 08:45:53;;;;;;;10.70;7.32;;;7.80;91.90;;;;;;5029671;28;20036;-68
2022/02/28 08:48:19;;;;;;;15.02;7.07;;;7.80;91.50;;;;;;5029266;28;20441;-68
2022/02/28 08:50:45;;;;;;;13.65;7.60;;;7.80;91.60;;;;;;5030326;28;20034;-67
2022/02/28 08:53:10;;;;;;;12.45;7.38;;;7.80;91.50;;;;;;5029705;28;20076;-68
2022/02/28 08:55:36;;;;;;;14.98;7.55;;;7.80;91.30;;;;;;5030598;28;20092;-67
2022/02/28 08:58:03;;;;;;;14.02;7.40;;;7.80;91.20;;;;;;5028133;28;20037;-67
2022/02/28 09:00:28;;;;;;;13.48;7.45;;;7.80;91.10;;;;;;5030480;28;20112;-67
2022/02/28 09:02:54;;;;;;;12.23;7.72;;;7.80;90.80;;;;;;5029638;28;20152;-68
2022/02/28 09:05:20;;;;;;;14.80;7.38;;;7.70;90.60;;;;;;5030128;28;20045;-67
2022/02/28 09:07:46;;;;;;;17.23;7.30;;;7.70;90.20;;;;;;5033543;28;20037;-67
2022/02/28 09:10:12;;;;;;;14.45;8.10;;;7.70;90.10;;;;;;5030405;28;20457;-67
2022/02/28 09:12:38;;;;;;;15.45;8.10;;;7.70;89.40;;;;;;5029357;28;20390;-68
2022/02/28 09:15:04;;;;;;;12.75;7.13;;;7.70;89.00;;;;;;5030325;28;20034;-67
2022/02/28 09:17:32;;;;;;;11.45;7.38;;;7.70;89.00;;;;;;5028146;28;20061;-67
2022/02/28 09:19:58;;;;;;;12.27;6.93;;;7.70;88.90;;;;;;5031683;28;20507;-67
2022/02/28 09:22:24;;;;;;;10.75;6.75;;;7.80;88.80;;;;;;5026972;28;20500;-67
2022/02/28 09:24:49;;;;;;;14.20;7.47;;;7.90;88.40;;;;;;5030419;28;20025;-67
2022/02/28 09:27:15;;;;;;;10.05;6.65;;;8.00;88.50;;;;;;5029280;28;20025;-67
2022/02/28 09:29:40;;;;;;;10.52;6.50;;;8.10;87.90;;;;;;5030252;28;20076;-68
2022/02/28 09:32:06;;;;;;;13.07;7.15;;;8.10;86.90;;;;;;5019096;28;20109;-67
2022/02/28 09:34:32;;;;;;;11.25;6.10;;;8.20;86.60;;;;;;5017090;28;20485;-67
2022/02/28 09:36:59;;;;;;;11.43;7.13;;;8.30;86.20;;;;;;5022219;28;20121;-68
2022/02/28 09:39:25;;;;;;;13.35;7.15;;;8.40;85.60;;;;;;5032526;28;20044;-68
2022/02/28 09:41:53;;;;;;;9.35;6.40;;;8.40;85.20;;;;;;5021094;28;20652;-68
2022/02/28 09:44:21;;;;;;;10.80;6.80;;;8.50;84.90;;;;;;5029866;28;20064;-67
2022/02/28 09:46:48;;;;;;;9.60;6.25;;;8.50;84.30;;;;;;5029464;28;20017;-67
2022/02/28 09:49:14;;;;;;;11.02;6.93;;;8.60;84.30;;;;;;5011059;28;20382;-68
2022/02/28 09:51:40;;;;;;;12.20;7.30;;;8.70;84.00;;;;;;5029260;28;20413;-68
2022/02/28 09:54:06;;;;;;;9.48;6.53;;;8.80;83.30;;;;;;5029932;28;20029;-68
2022/02/28 09:56:34;;;;;;;10.63;6.88;;;8.80;83.10;;;;;;5029133;28;20030;-68
2022/02/28 09:59:00;;;;;;;11.73;7.03;;;8.90;82.30;;;;;;5032026;28;20079;-68
2022/02/28 10:01:26;;;;;;;9.68;6.63;;;8.90;82.30;;;;;;5022183;28;20077;-68
2022/02/28 10:03:52;;;;;;;12.27;6.63;;;9.00;81.80;;;;;;5042601;28;20155;-68
2022/02/28 10:06:17;;;;;;;11.82;7.10;;;9.00;81.90;;;;;;5033301;28;20030;-67
2022/02/28 10:08:50;;;;;;;10.77;6.35;;;9.00;81.90;;;;;;5032349;28;20100;-67
2022/02/28 10:11:29;;;;;;;9.48;6.72;;;9.10;81.70;;;;;;5012441;28;20382;-68
2022/02/28 10:13:56;;;;;;;11.75;6.22;;;9.20;80.00;;;;;;5030162;28;20022;-68
2022/02/28 10:16:45;;;;;;;12.25;7.10;;;9.20;80.10;;;;;;5033638;28;20021;-68
2022/02/28 10:19:13;;;;;;;9.85;6.82;;;9.20;79.30;;;;;;5013837;28;20092;-68
2022/02/28 10:21:42;;;;;;;11.10;6.35;;;9.20;79.90;;;;;;5013849;28;20479;-68
2022/02/28 10:24:10;;;;;;;10.95;6.80;;;9.30;79.40;;;;;;5026096;28;20040;-68
2022/02/28 10:26:45;;;;;;;10.25;6.72;;;9.30;79.50;;;;;;5031295;28;20698;-68
2022/02/28 10:29:15;;;;;;;10.63;6.45;;;9.30;78.50;;;;;;5032733;28;20029;-68
2022/02/28 10:31:44;;;;;;;13.25;7.15;;;9.30;78.10;;;;;;5033000;28;20382;-68
2022/02/28 10:34:16;;;;;;;10.20;6.68;;;9.30;78.30;;;;;;5036672;28;20032;-68
2022/02/28 10:36:57;;;;;;;10.98;6.97;;;9.20;78.20;;;;;;5035781;28;20036;-68
2022/02/28 10:39:32;;;;;;;10.70;6.57;;;9.20;77.70;;;;;;5030803;28;20030;-68
2022/02/28 10:42:04;;;;;;;10.45;6.47;;;9.30;77.30;;;;;;5013701;28;20475;-68
2022/02/28 10:44:30;;;;;;;10.95;6.60;;;9.30;76.50;;;;;;5026953;28;20421;-68
2022/02/28 10:47:02;;;;;;;10.85;7.10;;;9.30;76.40;;;;;;5047496;28;20536;-68
2022/02/28 10:49:30;;;;;;;11.18;6.90;;;9.30;75.60;;;;;;5038701;28;20489;-68
2022/02/28 10:52:05;;;;;;;10.85;7.47;;;9.30;75.70;;;;;;5032408;28;20095;-68
2022/02/28 10:54:36;;;;;;;12.23;6.82;;;9.30;75.40;;;;;;5033004;28;20460;-68
2022/02/28 10:57:11;;;;;;;11.48;6.75;;;9.30;75.20;;;;;;5031527;28;20029;-68
2022/02/28 10:59:41;;;;;;;10.15;6.57;;;9.20;74.80;;;;;;5032938;28;20030;-68
2022/02/28 11:02:07;;;;;;;9.93;6.25;;;9.10;74.10;;;;;;5031261;28;20472;-68
2022/02/28 11:04:39;;;;;;;8.90;6.10;;;9.00;73.60;;;;;;5025793;28;20140;-68
2022/02/28 11:07:07;;;;;;;10.43;6.10;;;8.90;73.20;;;;;;5038094;28;20485;-68
2022/02/28 11:09:35;;;;;;;11.35;6.80;;;8.80;72.90;;;;;;5014964;28;20032;-68
2022/02/28 11:12:26;;;;;;;10.23;6.90;;;8.70;72.40;;;;;;5013937;28;20029;-68
2022/02/28 11:14:55;;;;;;;11.23;6.50;;;8.60;71.90;;;;;;5006265;28;20056;-68
2022/02/28 11:17:24;;;;;;;11.57;6.70;;;8.50;72.40;;;;;;5031924;28;20037;-68
2022/02/28 11:19:51;;;;;;;9.95;6.25;;;8.40;73.10;;;;;;5031652;28;20358;-68
2022/02/28 11:22:18;;;;;;;11.32;6.40;;;8.40;72.50;;;;;;5032587;28;20481;-68
2022/02/28 11:24:44;;;;;;;11.80;6.60;;;8.40;72.40;;;;;;5032401;28;20506;-68
2022/02/28 11:27:10;;;;;;;10.10;6.78;;;8.40;72.00;;;;;;5031611;28;20030;-68
2022/02/28 11:29:37;;;;;;;11.65;6.97;;;8.40;71.70;;;;;;5031867;28;20033;-68
2022/02/28 11:32:06;;;;;;;10.30;6.47;;;8.40;71.50;;;;;;5032396;28;20026;-68
2022/02/28 11:34:31;;;;;;;11.20;6.43;;;8.40;71.50;;;;;;5043490;22;20028;-74
2022/02/28 11:37:01;;;;;;;8.73;5.68;;;8.50;71.60;;;;;;5023159;28;20030;-74
2022/02/28 11:39:31;;;;;;;9.68;6.20;;;8.60;71.30;;;;;;5014062;28;20064;-77
2022/02/28 11:42:01;;;;;;;9.02;5.88;;;8.70;71.20;;;;;;4994641;28;20026;-73
2022/02/28 11:44:27;;;;;;;10.43;6.00;;;8.80;70.30;;;;;;5011514;28;20018;-73
2022/02/28 11:47:06;;;;;;;8.10;5.28;;;8.80;70.00;;;;;;4994639;28;20032;-74
2022/02/28 11:49:42;;;;;;;8.45;5.95;;;8.90;69.50;;;;;;5011607;28;20109;-74
2022/02/28 11:52:31;;;;;;;9.63;5.88;;;8.90;70.00;;;;;;4995082;28;20113;-74
2022/02/28 11:55:29;;;;;;;9.85;6.45;;;9.00;69.50;;;;;;5011775;28;20030;-74
2022/02/28 11:58:07;;;;;;;9.30;6.18;;;9.20;69.70;;;;;;5011041;28;20038;-73
2022/02/28 12:00:40;;;;;;;10.27;6.18;;;9.20;69.30;;;;;;5008115;28;20034;-74
2022/02/28 12:03:30;;;;;;;14.65;6.32;;;9.20;68.60;;;;;;5007309;28;20018;-72
2022/02/28 12:05:56;;;;;;;9.07;5.68;;;9.20;68.40;;;;;;4992552;28;20117;-73
2022/02/28 12:08:40;;;;;;;9.23;6.25;;;9.30;68.70;;;;;;4994352;28;20053;-73
2022/02/28 12:11:25;;;;;;;13.18;6.53;;;9.30;67.80;;;;;;5007388;28;20076;-72
2022/02/28 12:14:02;;;;;;;10.10;6.03;;;9.40;68.00;;;;;;4991271;28;20104;-73
2022/02/28 12:19:27;;;;;;;8.40;6.18;;;9.70;67.60;;;;;;5011523;28;20382;-72
2022/02/28 12:22:04;;;;;;;9.50;6.28;;;9.90;68.00;;;;;;4991411;28;20061;-70
2022/02/28 12:25:04;;;;;;;9.88;5.97;;;9.90;67.30;;;;;;4992932;28;20036;-69
2022/02/28 12:27:41;;;;;;;9.07;5.88;;;10.00;66.50;;;;;;5009914;28;20025;-69
2022/02/28 12:30:39;;;;;;;9.27;5.35;;;10.10;66.60;;;;;;5011114;28;20462;-68
2022/02/28 12:33:05;;;;;;;9.38;5.63;;;10.20;66.40;;;;;;4992881;28;20057;-75
2022/02/28 12:35:38;;;;;;;8.05;5.15;;;10.20;66.30;;;;;;4993759;28;20111;-75
2022/02/28 12:38:04;;;;;;;9.00;5.57;;;10.30;66.00;;;;;;5003263;28;20109;-73
2022/02/28 12:40:30;;;;;;;10.73;5.60;;;10.40;65.90;;;;;;5010734;28;20117;-73
2022/02/28 12:42:56;;;;;;;8.27;5.55;;;10.40;65.40;;;;;;5022279;28;20033;-73
2022/02/28 12:45:22;;;;;;;8.45;5.78;;;10.30;65.30;;;;;;5011593;28;20111;-72